sensor_id;sensor_type;location;lat;lon;timestamp;P1;durP1;ratioP1;P2;durP2;ratioP2
2724;SDS011;1370;52.596;13.112;2022-07-29T00:01:45;5.97;;;4.37;;
2724;SDS011;1370;52.596;13.112;2022-07-29T00:04:10;5.63;;;4.20;;
2724;SDS011;1370;52.596;13.112;2022-07-29T00:06:36;6.53;;;3.80;;
2724;SDS011;1370;52.596;13.112;2022-07-29T00:09:01;4.70;;;4.03;;
2724;SDS011;1370;52.596;13.112;2022-07-29T00:11:26;5.17;;;3.47;;
2724;SDS011;1370;52.596;13.112;2022-07-29T00:13:51;4.80;;;3.50;;
2724;SDS011;1370;52.596;13.112;2022-07-29T00:16:17;4.80;;;4.40;;
2724;SDS011;1370;52.596;13.112;2022-07-29T00:18:42;4.93;;;4.43;;
2724;SDS011;1370;52.596;13.112;2022-07-29T00:21:07;4.30;;;3.90;;
2724;SDS011;1370;52.596;13.112;2022-07-29T00:23:33;4.87;;;4.13;;
2724;SDS011;1370;52.596;13.112;2022-07-29T00:25:58;6.70;;;4.70;;
2724;SDS011;1370;52.596;13.112;2022-07-29T00:28:23;5.83;;;4.57;;
2724;SDS011;1370;52.596;13.112;2022-07-29T00:30:48;6.53;;;4.43;;
2724;SDS011;1370;52.596;13.112;2022-07-29T00:33:14;7.30;;;4.70;;
2724;SDS011;1370;52.596;13.112;2022-07-29T00:35:39;5.77;;;3.93;;
2724;SDS011;1370;52.596;13.112;2022-07-29T00:38:11;7.15;;;5.60;;
2724;SDS011;1370;52.596;13.112;2022-07-29T00:40:41;5.50;;;4.93;;
2724;SDS011;1370;52.596;13.112;2022-07-29T00:43:07;5.83;;;4.13;;
2724;SDS011;1370;52.596;13.112;2022-07-29T00:45:33;4.97;;;4.00;;
2724;SDS011;1370;52.596;13.112;2022-07-29T00:47:58;8.33;;;5.20;;
2724;SDS011;1370;52.596;13.112;2022-07-29T00:50:24;4.03;;;3.63;;
2724;SDS011;1370;52.596;13.112;2022-07-29T00:52:49;7.87;;;4.77;;
2724;SDS011;1370;52.596;13.112;2022-07-29T00:55:15;5.73;;;5.10;;
2724;SDS011;1370;52.596;13.112;2022-07-29T00:57:41;5.97;;;4.23;;
2724;SDS011;1370;52.596;13.112;2022-07-29T01:00:09;4.87;;;4.47;;
2724;SDS011;1370;52.596;13.112;2022-07-29T01:02:36;5.17;;;3.97;;
2724;SDS011;1370;52.596;13.112;2022-07-29T01:05:02;8.00;;;5.00;;
2724;SDS011;1370;52.596;13.112;2022-07-29T01:07:27;14.57;;;5.10;;
2724;SDS011;1370;52.596;13.112;2022-07-29T01:09:53;10.67;;;5.57;;
2724;SDS011;1370;52.596;13.112;2022-07-29T01:12:21;8.30;;;4.93;;
2724;SDS011;1370;52.596;13.112;2022-07-29T01:14:50;4.77;;;4.33;;
2724;SDS011;1370;52.596;13.112;2022-07-29T01:17:32;7.37;;;4.70;;
2724;SDS011;1370;52.596;13.112;2022-07-29T01:20:03;4.83;;;3.77;;
2724;SDS011;1370;52.596;13.112;2022-07-29T01:22:57;8.43;;;4.90;;
2724;SDS011;1370;52.596;13.112;2022-07-29T01:28:28;6.90;;;4.73;;
2724;SDS011;1370;52.596;13.112;2022-07-29T01:31:09;6.73;;;4.63;;
2724;SDS011;1370;52.596;13.112;2022-07-29T01:33:38;10.17;;;4.57;;
2724;SDS011;1370;52.596;13.112;2022-07-29T01:36:23;5.53;;;4.10;;
2724;SDS011;1370;52.596;13.112;2022-07-29T01:38:58;5.00;;;4.50;;
2724;SDS011;1370;52.596;13.112;2022-07-29T01:41:29;5.90;;;4.13;;
2724;SDS011;1370;52.596;13.112;2022-07-29T01:43:57;4.80;;;3.27;;
2724;SDS011;1370;52.596;13.112;2022-07-29T01:46:27;8.50;;;4.40;;
2724;SDS011;1370;52.596;13.112;2022-07-29T01:48:57;4.73;;;4.20;;
2724;SDS011;1370;52.596;13.112;2022-07-29T01:51:31;8.43;;;4.33;;
2724;SDS011;1370;52.596;13.112;2022-07-29T01:54:02;8.47;;;4.07;;
2724;SDS011;1370;52.596;13.112;2022-07-29T01:56:30;4.70;;;4.23;;
2724;SDS011;1370;52.596;13.112;2022-07-29T01:58:57;6.10;;;4.20;;
2724;SDS011;1370;52.596;13.112;2022-07-29T02:01:23;5.37;;;4.97;;
2724;SDS011;1370;52.596;13.112;2022-07-29T02:03:49;7.00;;;4.20;;
2724;SDS011;1370;52.596;13.112;2022-07-29T02:06:16;4.03;;;3.63;;
2724;SDS011;1370;52.596;13.112;2022-07-29T02:08:42;4.93;;;4.53;;
2724;SDS011;1370;52.596;13.112;2022-07-29T02:11:08;13.00;;;4.60;;
2724;SDS011;1370;52.596;13.112;2022-07-29T02:13:34;4.33;;;3.90;;
2724;SDS011;1370;52.596;13.112;2022-07-29T02:16:00;4.80;;;4.37;;
2724;SDS011;1370;52.596;13.112;2022-07-29T02:18:27;8.27;;;4.27;;
2724;SDS011;1370;52.596;13.112;2022-07-29T02:20:54;4.30;;;3.90;;
2724;SDS011;1370;52.596;13.112;2022-07-29T02:23:22;4.83;;;4.00;;
2724;SDS011;1370;52.596;13.112;2022-07-29T02:25:48;5.10;;;4.60;;
2724;SDS011;1370;52.596;13.112;2022-07-29T02:28:14;7.43;;;3.73;;
2724;SDS011;1370;52.596;13.112;2022-07-29T02:30:41;9.07;;;4.03;;
2724;SDS011;1370;52.596;13.112;2022-07-29T02:33:08;8.40;;;4.33;;
2724;SDS011;1370;52.596;13.112;2022-07-29T02:35:35;5.93;;;5.30;;
2724;SDS011;1370;52.596;13.112;2022-07-29T02:38:00;4.63;;;3.60;;
2724;SDS011;1370;52.596;13.112;2022-07-29T02:40:45;4.83;;;3.47;;
2724;SDS011;1370;52.596;13.112;2022-07-29T02:43:11;4.83;;;4.27;;
2724;SDS011;1370;52.596;13.112;2022-07-29T02:45:37;6.17;;;4.07;;
2724;SDS011;1370;52.596;13.112;2022-07-29T02:48:08;5.43;;;4.20;;
2724;SDS011;1370;52.596;13.112;2022-07-29T02:50:37;5.13;;;3.27;;
2724;SDS011;1370;52.596;13.112;2022-07-29T02:53:11;4.90;;;4.40;;
2724;SDS011;1370;52.596;13.112;2022-07-29T02:55:45;4.73;;;4.23;;
2724;SDS011;1370;52.596;13.112;2022-07-29T02:58:30;7.30;;;4.83;;
2724;SDS011;1370;52.596;13.112;2022-07-29T03:00:58;4.33;;;3.80;;
2724;SDS011;1370;52.596;13.112;2022-07-29T03:03:28;5.53;;;3.33;;
2724;SDS011;1370;52.596;13.112;2022-07-29T03:05:55;4.13;;;3.83;;
2724;SDS011;1370;52.596;13.112;2022-07-29T03:08:21;4.33;;;3.93;;
2724;SDS011;1370;52.596;13.112;2022-07-29T03:10:47;6.03;;;4.07;;
2724;SDS011;1370;52.596;13.112;2022-07-29T03:13:13;3.83;;;3.53;;
2724;SDS011;1370;52.596;13.112;2022-07-29T03:15:39;8.10;;;5.13;;
2724;SDS011;1370;52.596;13.112;2022-07-29T03:18:07;4.10;;;3.80;;
2724;SDS011;1370;52.596;13.112;2022-07-29T03:20:33;6.93;;;4.20;;
2724;SDS011;1370;52.596;13.112;2022-07-29T03:22:58;4.27;;;3.77;;
2724;SDS011;1370;52.596;13.112;2022-07-29T03:25:23;4.43;;;4.13;;
2724;SDS011;1370;52.596;13.112;2022-07-29T03:27:49;7.63;;;3.73;;
2724;SDS011;1370;52.596;13.112;2022-07-29T03:30:14;6.83;;;3.80;;
2724;SDS011;1370;52.596;13.112;2022-07-29T03:32:40;4.83;;;4.33;;
2724;SDS011;1370;52.596;13.112;2022-07-29T03:35:06;4.93;;;4.63;;
2724;SDS011;1370;52.596;13.112;2022-07-29T03:37:31;5.83;;;3.80;;
2724;SDS011;1370;52.596;13.112;2022-07-29T03:39:58;5.50;;;4.53;;
2724;SDS011;1370;52.596;13.112;2022-07-29T03:42:24;8.70;;;4.07;;
2724;SDS011;1370;52.596;13.112;2022-07-29T03:44:51;5.43;;;4.00;;
2724;SDS011;1370;52.596;13.112;2022-07-29T03:47:18;4.57;;;3.60;;
2724;SDS011;1370;52.596;13.112;2022-07-29T03:49:47;4.10;;;3.83;;
2724;SDS011;1370;52.596;13.112;2022-07-29T03:52:13;5.93;;;4.40;;
2724;SDS011;1370;52.596;13.112;2022-07-29T03:54:39;16.03;;;4.33;;
2724;SDS011;1370;52.596;13.112;2022-07-29T03:57:04;4.13;;;3.73;;
2724;SDS011;1370;52.596;13.112;2022-07-29T03:59:32;5.53;;;4.00;;
2724;SDS011;1370;52.596;13.112;2022-07-29T04:01:58;7.17;;;4.30;;
2724;SDS011;1370;52.596;13.112;2022-07-29T04:04:25;5.43;;;4.23;;
2724;SDS011;1370;52.596;13.112;2022-07-29T04:06:50;5.17;;;3.63;;
2724;SDS011;1370;52.596;13.112;2022-07-29T04:09:16;3.83;;;3.53;;
2724;SDS011;1370;52.596;13.112;2022-07-29T04:11:41;6.57;;;3.73;;
2724;SDS011;1370;52.596;13.112;2022-07-29T04:14:07;4.13;;;3.33;;
2724;SDS011;1370;52.596;13.112;2022-07-29T04:16:32;8.33;;;4.30;;
2724;SDS011;1370;52.596;13.112;2022-07-29T04:18:58;5.50;;;3.30;;
2724;SDS011;1370;52.596;13.112;2022-07-29T04:21:23;3.90;;;3.50;;
2724;SDS011;1370;52.596;13.112;2022-07-29T04:23:48;9.17;;;5.00;;
2724;SDS011;1370;52.596;13.112;2022-07-29T04:26:15;11.70;;;6.80;;
2724;SDS011;1370;52.596;13.112;2022-07-29T04:28:40;8.30;;;4.20;;
2724;SDS011;1370;52.596;13.112;2022-07-29T04:31:07;6.57;;;4.47;;
2724;SDS011;1370;52.596;13.112;2022-07-29T04:33:32;7.20;;;3.90;;
2724;SDS011;1370;52.596;13.112;2022-07-29T04:35:58;6.10;;;4.43;;
2724;SDS011;1370;52.596;13.112;2022-07-29T04:38:23;7.20;;;4.70;;
2724;SDS011;1370;52.596;13.112;2022-07-29T04:40:48;5.70;;;5.10;;
2724;SDS011;1370;52.596;13.112;2022-07-29T04:43:14;13.00;;;4.60;;
2724;SDS011;1370;52.596;13.112;2022-07-29T04:45:40;9.03;;;3.93;;
2724;SDS011;1370;52.596;13.112;2022-07-29T04:48:05;9.67;;;4.03;;
2724;SDS011;1370;52.596;13.112;2022-07-29T04:50:30;7.40;;;3.80;;
2724;SDS011;1370;52.596;13.112;2022-07-29T04:52:56;8.53;;;3.83;;
2724;SDS011;1370;52.596;13.112;2022-07-29T04:55:21;10.20;;;4.10;;
2724;SDS011;1370;52.596;13.112;2022-07-29T04:57:47;6.67;;;4.80;;
2724;SDS011;1370;52.596;13.112;2022-07-29T05:00:12;9.83;;;3.90;;
2724;SDS011;1370;52.596;13.112;2022-07-29T05:02:38;7.27;;;4.10;;
2724;SDS011;1370;52.596;13.112;2022-07-29T05:05:03;9.63;;;3.63;;
2724;SDS011;1370;52.596;13.112;2022-07-29T05:07:29;4.50;;;4.10;;
2724;SDS011;1370;52.596;13.112;2022-07-29T05:09:54;8.67;;;4.20;;
2724;SDS011;1370;52.596;13.112;2022-07-29T05:12:21;5.77;;;4.80;;
2724;SDS011;1370;52.596;13.112;2022-07-29T05:14:47;10.70;;;4.87;;
2724;SDS011;1370;52.596;13.112;2022-07-29T05:17:12;6.90;;;4.87;;
2724;SDS011;1370;52.596;13.112;2022-07-29T05:19:37;10.60;;;4.03;;
2724;SDS011;1370;52.596;13.112;2022-07-29T05:22:03;4.20;;;3.70;;
2724;SDS011;1370;52.596;13.112;2022-07-29T05:24:28;3.97;;;3.67;;
2724;SDS011;1370;52.596;13.112;2022-07-29T05:26:53;4.60;;;4.20;;
2724;SDS011;1370;52.596;13.112;2022-07-29T05:29:19;6.77;;;4.60;;
2724;SDS011;1370;52.596;13.112;2022-07-29T05:31:44;4.37;;;3.90;;
2724;SDS011;1370;52.596;13.112;2022-07-29T05:34:09;4.87;;;4.47;;
2724;SDS011;1370;52.596;13.112;2022-07-29T05:36:35;6.23;;;4.27;;
2724;SDS011;1370;52.596;13.112;2022-07-29T05:39:00;8.77;;;3.73;;
2724;SDS011;1370;52.596;13.112;2022-07-29T05:41:25;6.23;;;3.83;;
2724;SDS011;1370;52.596;13.112;2022-07-29T05:43:51;5.80;;;3.47;;
2724;SDS011;1370;52.596;13.112;2022-07-29T05:46:16;5.20;;;3.70;;
2724;SDS011;1370;52.596;13.112;2022-07-29T05:48:42;10.80;;;4.47;;
2724;SDS011;1370;52.596;13.112;2022-07-29T05:51:07;4.43;;;3.43;;
2724;SDS011;1370;52.596;13.112;2022-07-29T05:53:32;7.97;;;4.40;;
2724;SDS011;1370;52.596;13.112;2022-07-29T05:55:58;6.67;;;4.10;;
2724;SDS011;1370;52.596;13.112;2022-07-29T05:58:23;7.50;;;5.03;;
2724;SDS011;1370;52.596;13.112;2022-07-29T06:00:48;5.60;;;3.87;;
2724;SDS011;1370;52.596;13.112;2022-07-29T06:03:14;9.63;;;4.30;;
2724;SDS011;1370;52.596;13.112;2022-07-29T06:05:39;6.70;;;4.17;;
2724;SDS011;1370;52.596;13.112;2022-07-29T06:08:04;3.80;;;3.50;;
2724;SDS011;1370;52.596;13.112;2022-07-29T06:10:34;3.30;;;3.00;;
2724;SDS011;1370;52.596;13.112;2022-07-29T06:13:00;6.90;;;3.23;;
2724;SDS011;1370;52.596;13.112;2022-07-29T06:15:25;4.20;;;3.90;;
2724;SDS011;1370;52.596;13.112;2022-07-29T06:17:51;3.73;;;3.43;;
2724;SDS011;1370;52.596;13.112;2022-07-29T06:20:17;4.20;;;3.90;;
2724;SDS011;1370;52.596;13.112;2022-07-29T06:22:42;4.70;;;4.20;;
2724;SDS011;1370;52.596;13.112;2022-07-29T06:25:08;12.97;;;3.30;;
2724;SDS011;1370;52.596;13.112;2022-07-29T06:27:33;8.43;;;3.43;;
2724;SDS011;1370;52.596;13.112;2022-07-29T06:29:58;5.07;;;3.83;;
2724;SDS011;1370;52.596;13.112;2022-07-29T06:32:23;5.17;;;3.70;;
2724;SDS011;1370;52.596;13.112;2022-07-29T06:34:49;3.90;;;3.50;;
2724;SDS011;1370;52.596;13.112;2022-07-29T06:37:15;4.40;;;3.83;;
2724;SDS011;1370;52.596;13.112;2022-07-29T06:39:40;10.63;;;3.70;;
2724;SDS011;1370;52.596;13.112;2022-07-29T06:42:06;6.63;;;3.70;;
2724;SDS011;1370;52.596;13.112;2022-07-29T06:44:31;3.60;;;3.40;;
2724;SDS011;1370;52.596;13.112;2022-07-29T06:46:58;5.87;;;4.63;;
2724;SDS011;1370;52.596;13.112;2022-07-29T06:49:24;5.07;;;3.77;;
2724;SDS011;1370;52.596;13.112;2022-07-29T06:51:50;4.53;;;4.13;;
2724;SDS011;1370;52.596;13.112;2022-07-29T06:54:16;4.13;;;3.80;;
2724;SDS011;1370;52.596;13.112;2022-07-29T06:56:41;3.53;;;3.23;;
2724;SDS011;1370;52.596;13.112;2022-07-29T06:59:08;3.80;;;3.40;;
2724;SDS011;1370;52.596;13.112;2022-07-29T07:01:35;3.97;;;3.67;;
2724;SDS011;1370;52.596;13.112;2022-07-29T07:04:01;5.80;;;5.03;;
2724;SDS011;1370;52.596;13.112;2022-07-29T07:06:27;4.30;;;4.00;;
2724;SDS011;1370;52.596;13.112;2022-07-29T07:08:52;14.53;;;3.50;;
2724;SDS011;1370;52.596;13.112;2022-07-29T07:11:17;3.47;;;3.17;;
2724;SDS011;1370;52.596;13.112;2022-07-29T07:13:43;5.67;;;3.57;;
2724;SDS011;1370;52.596;13.112;2022-07-29T07:16:08;9.83;;;3.67;;
2724;SDS011;1370;52.596;13.112;2022-07-29T07:18:33;5.53;;;3.50;;
2724;SDS011;1370;52.596;13.112;2022-07-29T07:20:59;3.33;;;2.50;;
2724;SDS011;1370;52.596;13.112;2022-07-29T07:23:24;7.10;;;3.43;;
2724;SDS011;1370;52.596;13.112;2022-07-29T07:25:49;6.47;;;3.13;;
2724;SDS011;1370;52.596;13.112;2022-07-29T07:28:15;5.50;;;3.97;;
2724;SDS011;1370;52.596;13.112;2022-07-29T07:30:40;3.83;;;3.20;;
2724;SDS011;1370;52.596;13.112;2022-07-29T07:33:05;5.60;;;3.40;;
2724;SDS011;1370;52.596;13.112;2022-07-29T07:35:31;4.00;;;3.70;;
2724;SDS011;1370;52.596;13.112;2022-07-29T07:37:56;7.93;;;3.67;;
2724;SDS011;1370;52.596;13.112;2022-07-29T07:40:22;7.33;;;3.87;;
2724;SDS011;1370;52.596;13.112;2022-07-29T07:42:47;4.40;;;3.70;;
2724;SDS011;1370;52.596;13.112;2022-07-29T07:45:13;5.27;;;3.63;;
2724;SDS011;1370;52.596;13.112;2022-07-29T07:47:38;5.90;;;4.27;;
2724;SDS011;1370;52.596;13.112;2022-07-29T07:50:05;7.53;;;3.60;;
2724;SDS011;1370;52.596;13.112;2022-07-29T07:52:32;8.20;;;3.73;;
2724;SDS011;1370;52.596;13.112;2022-07-29T07:54:57;8.10;;;3.10;;
2724;SDS011;1370;52.596;13.112;2022-07-29T07:57:23;9.03;;;4.93;;
2724;SDS011;1370;52.596;13.112;2022-07-29T07:59:48;9.27;;;4.33;;
2724;SDS011;1370;52.596;13.112;2022-07-29T08:02:13;5.23;;;3.63;;
2724;SDS011;1370;52.596;13.112;2022-07-29T08:04:38;7.00;;;3.87;;
2724;SDS011;1370;52.596;13.112;2022-07-29T08:07:05;5.20;;;3.70;;
2724;SDS011;1370;52.596;13.112;2022-07-29T08:09:31;3.73;;;3.07;;
2724;SDS011;1370;52.596;13.112;2022-07-29T08:11:56;8.20;;;4.03;;
2724;SDS011;1370;52.596;13.112;2022-07-29T08:14:23;3.90;;;3.03;;
2724;SDS011;1370;52.596;13.112;2022-07-29T08:16:48;4.80;;;3.23;;
2724;SDS011;1370;52.596;13.112;2022-07-29T08:19:14;8.53;;;3.57;;
2724;SDS011;1370;52.596;13.112;2022-07-29T08:21:39;8.23;;;2.90;;
2724;SDS011;1370;52.596;13.112;2022-07-29T08:24:05;4.73;;;3.07;;
2724;SDS011;1370;52.596;13.112;2022-07-29T08:26:49;4.80;;;3.10;;
2724;SDS011;1370;52.596;13.112;2022-07-29T08:29:14;6.90;;;3.87;;
2724;SDS011;1370;52.596;13.112;2022-07-29T08:31:41;6.87;;;3.20;;
2724;SDS011;1370;52.596;13.112;2022-07-29T08:34:06;5.13;;;3.20;;
2724;SDS011;1370;52.596;13.112;2022-07-29T08:36:32;4.13;;;2.73;;
2724;SDS011;1370;52.596;13.112;2022-07-29T08:38:58;5.77;;;2.93;;
2724;SDS011;1370;52.596;13.112;2022-07-29T08:41:24;7.70;;;3.27;;
2724;SDS011;1370;52.596;13.112;2022-07-29T08:43:49;4.30;;;2.40;;
2724;SDS011;1370;52.596;13.112;2022-07-29T08:46:16;14.00;;;3.20;;
2724;SDS011;1370;52.596;13.112;2022-07-29T08:48:42;7.97;;;3.40;;
2724;SDS011;1370;52.596;13.112;2022-07-29T08:51:07;6.50;;;2.77;;
2724;SDS011;1370;52.596;13.112;2022-07-29T08:53:33;4.80;;;2.60;;
2724;SDS011;1370;52.596;13.112;2022-07-29T08:55:58;2.60;;;2.40;;
2724;SDS011;1370;52.596;13.112;2022-07-29T08:58:24;5.30;;;3.10;;
2724;SDS011;1370;52.596;13.112;2022-07-29T09:00:51;8.73;;;2.60;;
2724;SDS011;1370;52.596;13.112;2022-07-29T09:03:18;6.30;;;3.30;;
2724;SDS011;1370;52.596;13.112;2022-07-29T09:05:44;5.20;;;3.50;;
2724;SDS011;1370;52.596;13.112;2022-07-29T09:08:10;5.40;;;2.77;;
2724;SDS011;1370;52.596;13.112;2022-07-29T09:10:36;2.47;;;2.27;;
2724;SDS011;1370;52.596;13.112;2022-07-29T09:13:01;3.60;;;2.30;;
2724;SDS011;1370;52.596;13.112;2022-07-29T09:15:27;8.33;;;2.67;;
2724;SDS011;1370;52.596;13.112;2022-07-29T09:17:52;5.20;;;2.60;;
2724;SDS011;1370;52.596;13.112;2022-07-29T09:20:19;5.47;;;2.60;;
2724;SDS011;1370;52.596;13.112;2022-07-29T09:22:46;5.00;;;2.23;;
2724;SDS011;1370;52.596;13.112;2022-07-29T09:25:34;3.67;;;2.10;;
2724;SDS011;1370;52.596;13.112;2022-07-29T09:28:07;5.87;;;1.83;;
2724;SDS011;1370;52.596;13.112;2022-07-29T09:30:49;6.23;;;2.30;;
2724;SDS011;1370;52.596;13.112;2022-07-29T09:33:16;3.00;;;2.33;;
2724;SDS011;1370;52.596;13.112;2022-07-29T09:35:41;4.80;;;2.60;;
2724;SDS011;1370;52.596;13.112;2022-07-29T09:38:12;3.47;;;2.70;;
2724;SDS011;1370;52.596;13.112;2022-07-29T09:40:38;2.17;;;1.90;;
2724;SDS011;1370;52.596;13.112;2022-07-29T09:43:10;2.90;;;2.40;;
2724;SDS011;1370;52.596;13.112;2022-07-29T09:45:37;3.30;;;2.17;;
2724;SDS011;1370;52.596;13.112;2022-07-29T09:48:21;4.10;;;2.53;;
2724;SDS011;1370;52.596;13.112;2022-07-29T09:50:48;4.00;;;2.23;;
2724;SDS011;1370;52.596;13.112;2022-07-29T09:55:56;2.67;;;2.47;;
2724;SDS011;1370;52.596;13.112;2022-07-29T09:58:21;7.50;;;2.23;;
2724;SDS011;1370;52.596;13.112;2022-07-29T10:00:47;3.10;;;1.70;;
2724;SDS011;1370;52.596;13.112;2022-07-29T10:03:14;3.93;;;2.43;;
2724;SDS011;1370;52.596;13.112;2022-07-29T10:05:40;2.30;;;2.10;;
2724;SDS011;1370;52.596;13.112;2022-07-29T10:08:07;4.40;;;1.77;;
2724;SDS011;1370;52.596;13.112;2022-07-29T10:10:34;2.50;;;1.73;;
2724;SDS011;1370;52.596;13.112;2022-07-29T10:13:04;2.43;;;2.07;;
2724;SDS011;1370;52.596;13.112;2022-07-29T10:15:32;4.10;;;2.00;;
2724;SDS011;1370;52.596;13.112;2022-07-29T10:18:02;3.80;;;2.00;;
2724;SDS011;1370;52.596;13.112;2022-07-29T10:20:27;8.07;;;2.30;;
2724;SDS011;1370;52.596;13.112;2022-07-29T10:22:53;3.87;;;2.10;;
2724;SDS011;1370;52.596;13.112;2022-07-29T10:25:19;3.63;;;2.73;;
2724;SDS011;1370;52.596;13.112;2022-07-29T10:27:45;6.53;;;2.70;;
2724;SDS011;1370;52.596;13.112;2022-07-29T10:30:12;4.60;;;2.40;;
2724;SDS011;1370;52.596;13.112;2022-07-29T10:32:43;2.20;;;2.00;;
2724;SDS011;1370;52.596;13.112;2022-07-29T10:35:27;3.93;;;2.00;;
2724;SDS011;1370;52.596;13.112;2022-07-29T10:38:10;7.80;;;2.60;;
2724;SDS011;1370;52.596;13.112;2022-07-29T10:40:39;5.20;;;2.40;;
2724;SDS011;1370;52.596;13.112;2022-07-29T10:43:42;5.80;;;2.33;;
2724;SDS011;1370;52.596;13.112;2022-07-29T10:46:08;4.73;;;2.17;;
2724;SDS011;1370;52.596;13.112;2022-07-29T10:48:35;4.77;;;3.00;;
2724;SDS011;1370;52.596;13.112;2022-07-29T10:51:02;6.40;;;2.67;;
2724;SDS011;1370;52.596;13.112;2022-07-29T10:53:48;2.17;;;1.97;;
2724;SDS011;1370;52.596;13.112;2022-07-29T10:59:22;4.50;;;2.03;;
2724;SDS011;1370;52.596;13.112;2022-07-29T11:01:43;4.70;;;2.00;;
2724;SDS011;1370;52.596;13.112;2022-07-29T11:04:09;2.87;;;2.00;;
2724;SDS011;1370;52.596;13.112;2022-07-29T11:09:31;2.47;;;2.13;;
2724;SDS011;1370;52.596;13.112;2022-07-29T11:11:57;5.80;;;2.07;;
2724;SDS011;1370;52.596;13.112;2022-07-29T11:17:22;3.23;;;2.07;;
2724;SDS011;1370;52.596;13.112;2022-07-29T11:19:48;4.60;;;2.30;;
2724;SDS011;1370;52.596;13.112;2022-07-29T11:22:31;2.37;;;1.90;;
2724;SDS011;1370;52.596;13.112;2022-07-29T11:25:14;4.83;;;2.23;;
2724;SDS011;1370;52.596;13.112;2022-07-29T11:27:40;4.13;;;2.33;;
2724;SDS011;1370;52.596;13.112;2022-07-29T11:30:05;2.77;;;1.83;;
2724;SDS011;1370;52.596;13.112;2022-07-29T11:32:38;3.30;;;2.50;;
2724;SDS011;1370;52.596;13.112;2022-07-29T11:35:12;4.90;;;2.27;;
2724;SDS011;1370;52.596;13.112;2022-07-29T11:37:37;5.03;;;1.73;;
2724;SDS011;1370;52.596;13.112;2022-07-29T11:50:12;5.53;;;3.03;;
2724;SDS011;1370;52.596;13.112;2022-07-29T11:52:42;3.70;;;1.80;;
2724;SDS011;1370;52.596;13.112;2022-07-29T11:55:14;6.07;;;2.20;;
2724;SDS011;1370;52.596;13.112;2022-07-29T11:57:46;3.60;;;2.70;;
2724;SDS011;1370;52.596;13.112;2022-07-29T12:00:20;4.27;;;3.43;;
2724;SDS011;1370;52.596;13.112;2022-07-29T12:03:08;3.60;;;2.30;;
2724;SDS011;1370;52.596;13.112;2022-07-29T12:05:37;6.73;;;2.80;;
2724;SDS011;1370;52.596;13.112;2022-07-29T12:08:04;5.67;;;1.83;;
2724;SDS011;1370;52.596;13.112;2022-07-29T12:10:30;3.70;;;2.20;;
2724;SDS011;1370;52.596;13.112;2022-07-29T12:12:56;4.63;;;2.63;;
2724;SDS011;1370;52.596;13.112;2022-07-29T12:15:21;4.60;;;2.70;;
2724;SDS011;1370;52.596;13.112;2022-07-29T12:17:48;3.20;;;2.77;;
2724;SDS011;1370;52.596;13.112;2022-07-29T12:20:21;3.07;;;2.50;;
2724;SDS011;1370;52.596;13.112;2022-07-29T12:22:47;3.40;;;2.60;;
2724;SDS011;1370;52.596;13.112;2022-07-29T12:25:14;6.80;;;2.43;;
2724;SDS011;1370;52.596;13.112;2022-07-29T12:27:41;3.50;;;2.30;;
2724;SDS011;1370;52.596;13.112;2022-07-29T12:30:09;5.17;;;2.80;;
2724;SDS011;1370;52.596;13.112;2022-07-29T12:32:36;4.60;;;2.23;;
2724;SDS011;1370;52.596;13.112;2022-07-29T12:35:06;2.80;;;2.20;;
2724;SDS011;1370;52.596;13.112;2022-07-29T12:37:34;3.47;;;3.17;;
2724;SDS011;1370;52.596;13.112;2022-07-29T12:40:00;3.23;;;2.83;;
2724;SDS011;1370;52.596;13.112;2022-07-29T12:42:26;4.57;;;2.77;;
2724;SDS011;1370;52.596;13.112;2022-07-29T12:44:52;3.50;;;3.03;;
2724;SDS011;1370;52.596;13.112;2022-07-29T12:47:17;4.40;;;4.00;;
2724;SDS011;1370;52.596;13.112;2022-07-29T12:49:43;8.83;;;2.90;;
2724;SDS011;1370;52.596;13.112;2022-07-29T12:54:53;6.63;;;2.97;;
2724;SDS011;1370;52.596;13.112;2022-07-29T12:57:18;3.77;;;3.43;;
2724;SDS011;1370;52.596;13.112;2022-07-29T12:59:43;4.67;;;3.47;;
2724;SDS011;1370;52.596;13.112;2022-07-29T13:02:20;5.17;;;2.97;;
2724;SDS011;1370;52.596;13.112;2022-07-29T13:04:54;5.77;;;3.60;;
2724;SDS011;1370;52.596;13.112;2022-07-29T13:07:27;5.13;;;3.30;;
2724;SDS011;1370;52.596;13.112;2022-07-29T13:09:54;7.83;;;3.27;;
2724;SDS011;1370;52.596;13.112;2022-07-29T13:12:37;4.13;;;3.10;;
2724;SDS011;1370;52.596;13.112;2022-07-29T13:15:13;4.10;;;2.73;;
2724;SDS011;1370;52.596;13.112;2022-07-29T13:17:41;4.00;;;2.90;;
2724;SDS011;1370;52.596;13.112;2022-07-29T13:20:08;5.67;;;3.40;;
2724;SDS011;1370;52.596;13.112;2022-07-29T13:22:37;3.67;;;3.37;;
2724;SDS011;1370;52.596;13.112;2022-07-29T13:25:02;3.80;;;3.13;;
2724;SDS011;1370;52.596;13.112;2022-07-29T13:27:29;7.53;;;4.23;;
2724;SDS011;1370;52.596;13.112;2022-07-29T13:29:57;8.20;;;3.50;;
2724;SDS011;1370;52.596;13.112;2022-07-29T13:32:24;4.00;;;3.70;;
2724;SDS011;1370;52.596;13.112;2022-07-29T13:34:50;3.83;;;3.53;;
2724;SDS011;1370;52.596;13.112;2022-07-29T13:37:16;5.33;;;3.47;;
2724;SDS011;1370;52.596;13.112;2022-07-29T13:39:42;4.43;;;3.90;;
2724;SDS011;1370;52.596;13.112;2022-07-29T13:42:07;4.00;;;3.70;;
2724;SDS011;1370;52.596;13.112;2022-07-29T13:44:33;4.23;;;3.50;;
2724;SDS011;1370;52.596;13.112;2022-07-29T13:46:58;6.23;;;3.80;;
2724;SDS011;1370;52.596;13.112;2022-07-29T13:49:24;5.20;;;3.90;;
2724;SDS011;1370;52.596;13.112;2022-07-29T13:51:50;3.93;;;3.63;;
2724;SDS011;1370;52.596;13.112;2022-07-29T13:54:15;4.33;;;4.00;;
2724;SDS011;1370;52.596;13.112;2022-07-29T13:56:41;4.03;;;3.73;;
2724;SDS011;1370;52.596;13.112;2022-07-29T13:59:06;4.23;;;3.33;;
2724;SDS011;1370;52.596;13.112;2022-07-29T14:01:32;4.47;;;4.17;;
2724;SDS011;1370;52.596;13.112;2022-07-29T14:03:58;3.43;;;3.20;;
2724;SDS011;1370;52.596;13.112;2022-07-29T14:06:23;4.83;;;3.93;;
2724;SDS011;1370;52.596;13.112;2022-07-29T14:08:49;4.60;;;3.40;;
2724;SDS011;1370;52.596;13.112;2022-07-29T14:11:14;4.47;;;3.00;;
2724;SDS011;1370;52.596;13.112;2022-07-29T14:13:39;4.33;;;3.97;;
2724;SDS011;1370;52.596;13.112;2022-07-29T14:16:04;7.47;;;3.93;;
2724;SDS011;1370;52.596;13.112;2022-07-29T14:18:30;4.13;;;3.47;;
2724;SDS011;1370;52.596;13.112;2022-07-29T14:20:56;5.80;;;3.60;;
2724;SDS011;1370;52.596;13.112;2022-07-29T14:23:21;3.83;;;3.43;;
2724;SDS011;1370;52.596;13.112;2022-07-29T14:25:46;3.60;;;3.30;;
2724;SDS011;1370;52.596;13.112;2022-07-29T14:28:12;5.03;;;3.80;;
2724;SDS011;1370;52.596;13.112;2022-07-29T14:30:37;8.00;;;3.90;;
2724;SDS011;1370;52.596;13.112;2022-07-29T14:33:03;3.53;;;3.23;;
2724;SDS011;1370;52.596;13.112;2022-07-29T14:35:28;8.37;;;3.50;;
2724;SDS011;1370;52.596;13.112;2022-07-29T14:37:53;6.23;;;3.50;;
2724;SDS011;1370;52.596;13.112;2022-07-29T14:40:19;3.90;;;3.60;;
2724;SDS011;1370;52.596;13.112;2022-07-29T14:42:44;7.10;;;4.67;;
2724;SDS011;1370;52.596;13.112;2022-07-29T14:45:09;3.63;;;3.33;;
2724;SDS011;1370;52.596;13.112;2022-07-29T14:47:35;6.30;;;3.73;;
2724;SDS011;1370;52.596;13.112;2022-07-29T14:50:01;7.57;;;4.23;;
2724;SDS011;1370;52.596;13.112;2022-07-29T14:52:27;5.20;;;4.13;;
2724;SDS011;1370;52.596;13.112;2022-07-29T14:54:52;5.37;;;4.50;;
2724;SDS011;1370;52.596;13.112;2022-07-29T14:57:18;4.13;;;3.77;;
2724;SDS011;1370;52.596;13.112;2022-07-29T14:59:43;4.00;;;3.50;;
2724;SDS011;1370;52.596;13.112;2022-07-29T15:02:08;5.37;;;3.93;;
2724;SDS011;1370;52.596;13.112;2022-07-29T15:04:33;4.73;;;4.27;;
2724;SDS011;1370;52.596;13.112;2022-07-29T15:06:59;4.20;;;3.53;;
2724;SDS011;1370;52.596;13.112;2022-07-29T15:09:24;5.57;;;4.00;;
2724;SDS011;1370;52.596;13.112;2022-07-29T15:11:50;4.70;;;3.60;;
2724;SDS011;1370;52.596;13.112;2022-07-29T15:14:15;5.83;;;3.50;;
2724;SDS011;1370;52.596;13.112;2022-07-29T15:16:40;3.83;;;3.50;;
2724;SDS011;1370;52.596;13.112;2022-07-29T15:19:07;6.13;;;4.10;;
2724;SDS011;1370;52.596;13.112;2022-07-29T15:21:32;5.00;;;3.80;;
2724;SDS011;1370;52.596;13.112;2022-07-29T15:23:57;6.43;;;4.20;;
2724;SDS011;1370;52.596;13.112;2022-07-29T15:26:23;5.07;;;4.10;;
2724;SDS011;1370;52.596;13.112;2022-07-29T15:28:48;5.67;;;3.97;;